Time;durP1;ratioP1;P1;durP2;ratioP2;P2;SDS_P1;SDS_P2;PMS_P1;PMS_P2;Temp;Humidity;BMP_temperature;BMP_pressure;BME280_temperature;BME280_humidity;BME280_pressure;Samples;Min_cycle;Max_cycle;Signal;HPM_P1;HPM_P2
2021/03/05 00:13:56;;;;;;;21.42;12.00;;;;;;;6.78;63.30;99023.28;5386287;23;20088;-81
2021/03/05 01:40:40;;;;;;;18.50;10.55;;;;;;;6.29;64.86;98963.00;4839199;29;20045;-82
2021/03/05 02:00:14;;;;;;;18.13;9.55;;;;;;;6.20;65.91;98965.31;5516349;23;20860;-81
2021/03/05 02:02:40;;;;;;;21.65;9.80;;;;;;;6.20;65.40;98959.19;4829262;29;20083;-77
2021/03/05 02:05:06;;;;;;;19.83;9.50;;;;;;;6.20;65.73;98957.34;4812991;29;20034;-79
2021/03/05 02:43:15;;;;;;;;;;;;;;;5.97;65.58;98979.63;5140375;23;20088;31
2021/03/05 02:45:43;;;;;;;19.25;10.45;;;;;;;5.96;65.83;98974.53;4859985;29;19988;-79
2021/03/05 04:55:11;;;;;;;19.40;9.75;;;;;;;4.44;65.84;98996.41;4832150;29;20057;-80
2021/03/05 05:02:09;;;;;;;34.58;16.00;;;;;;;4.65;65.62;99004.69;4828908;29;20109;-80
2021/03/05 05:05:17;;;;;;;31.27;16.15;;;;;;;4.80;65.19;98998.88;4840662;29;20250;-80
2021/03/05 05:07:42;;;;;;;27.92;15.73;;;;;;;4.93;65.13;99000.41;4812549;29;20057;-79
2021/03/05 05:10:15;;;;;;;27.48;15.57;;;;;;;5.08;64.82;99003.31;4840915;29;20044;-79
2021/03/05 05:29:29;;;;;;;22.50;10.65;;;;;;;6.47;61.32;99016.84;5172009;23;20054;-82
2021/03/05 05:52:18;;;;;;;27.73;13.98;;;;;;;7.77;57.60;99008.84;4916770;23;20102;-84
2021/03/05 06:04:56;;;;;;;45.85;22.95;;;;;;;8.44;54.45;99027.78;5853166;23;20408;-83
2021/03/05 06:18:18;;;;;;;50.75;27.67;;;;;;;9.02;53.62;99033.00;5159944;24;20072;-90
2021/03/05 06:20:47;;;;;;;79.28;41.33;;;;;;;9.13;53.68;99029.25;4833787;29;20060;-87
2021/03/05 06:23:43;;;;;;;75.90;36.42;;;;;;;9.33;52.98;99041.00;4845830;29;20059;-85
2021/03/05 06:26:10;;;;;;;72.03;35.95;;;;;;;9.45;53.57;99043.41;4826529;29;20415;-83
2021/03/05 06:29:06;;;;;;;63.40;33.28;;;;;;;9.54;51.82;99043.66;4832149;29;20124;-87
2021/03/05 06:31:36;;;;;;;70.57;38.35;;;;;;;9.59;52.04;99041.78;4832434;29;20052;-79
2021/03/05 06:34:48;;;;;;;65.20;36.13;;;;;;;9.65;52.29;99042.56;4824602;29;20025;-87
2021/03/05 06:37:22;;;;;;;64.15;33.22;;;;;;;9.86;52.36;99047.88;4809499;29;20046;-88
2021/03/05 06:40:26;;;;;;;63.17;32.80;;;;;;;10.00;51.97;99048.09;4808641;29;20041;-80
2021/03/05 06:42:52;;;;;;;57.30;32.83;;;;;;;10.22;51.94;99058.44;4823023;29;20034;-87
2021/03/05 06:45:39;;;;;;;46.63;27.42;;;;;;;10.36;51.37;99059.50;4838442;29;20414;-86
2021/03/05 06:48:09;;;;;;;43.35;23.83;;;;;;;10.52;51.33;99062.09;4822669;29;20624;-86
2021/03/05 06:50:39;;;;;;;45.22;24.00;;;;;;;10.64;50.46;99056.41;4839255;29;20049;-92
2021/03/05 06:53:24;;;;;;;42.67;22.67;;;;;;;10.75;50.40;99065.19;4823445;29;20044;-79
2021/03/05 06:55:51;;;;;;;61.17;28.17;;;;;;;10.82;50.44;99063.78;4805414;29;20194;-95
2021/03/05 06:58:18;;;;;;;48.53;26.35;;;;;;;10.93;50.27;99072.56;4827355;29;20030;-91
2021/03/05 07:00:44;;;;;;;40.80;23.60;;;;;;;11.00;49.80;99067.69;4840966;29;20041;-84
2021/03/05 07:03:22;;;;;;;44.92;23.85;;;;;;;11.05;49.18;99058.84;4834047;29;20056;-84
2021/03/05 07:06:21;;;;;;;49.67;27.00;;;;;;;11.07;49.61;99050.53;4823993;29;20029;-96
2021/03/05 07:08:46;;;;;;;50.65;27.38;;;;;;;11.10;49.80;99060.69;4825949;29;20504;-82
2021/03/05 07:11:30;;;;;;;49.03;28.38;;;;;;;11.16;49.48;99060.38;4833419;29;20066;-85
2021/03/05 07:13:55;;;;;;;46.05;26.20;;;;;;;11.20;49.80;99060.59;4814120;29;20034;-86
2021/03/05 07:16:21;;;;;;;46.72;27.60;;;;;;;11.28;49.90;99057.34;4814562;29;20056;-87
2021/03/05 07:18:46;;;;;;;45.13;27.15;;;;;;;11.35;48.96;99057.00;4822260;29;20041;-79
2021/03/05 07:21:17;;;;;;;51.05;29.73;;;;;;;11.37;48.78;99054.84;4820774;29;20625;-85
2021/03/05 07:23:44;;;;;;;50.03;28.17;;;;;;;11.38;49.27;99054.56;4814585;29;20031;-87
2021/03/05 07:26:11;;;;;;;51.50;28.65;;;;;;;11.40;49.65;99053.47;4824333;29;20038;-84
2021/03/05 07:28:43;;;;;;;50.00;30.58;;;;;;;11.41;49.45;99052.41;4839285;29;20049;-81
2021/03/05 07:31:09;;;;;;;45.45;28.63;;;;;;;11.45;50.58;99048.06;4837856;29;20039;-83
2021/03/05 07:33:39;;;;;;;49.38;28.35;;;;;;;11.56;49.80;99041.56;4837873;29;20038;-84
2021/03/05 07:36:09;;;;;;;48.08;29.17;;;;;;;11.63;50.18;99043.91;4838255;29;20498;-88
2021/03/05 07:38:39;;;;;;;43.40;26.20;;;;;;;11.75;50.32;99040.84;4840091;29;20034;-86
2021/03/05 07:41:06;;;;;;;46.03;27.55;;;;;;;11.86;49.90;99036.97;4807782;29;20042;-82
2021/03/05 07:43:32;;;;;;;41.83;26.00;;;;;;;12.01;49.79;99036.84;4807901;29;20046;-83
2021/03/05 07:45:58;;;;;;;39.95;24.98;;;;;;;12.16;49.90;99035.84;4822347;29;20030;-87
2021/03/05 07:48:23;;;;;;;48.88;25.52;;;;;;;12.31;49.10;99034.88;4807713;29;20098;-86
2021/03/05 07:50:50;;;;;;;40.85;23.80;;;;;;;12.45;50.16;99036.84;4824084;29;20030;-77
2021/03/05 07:53:16;;;;;;;48.60;28.70;;;;;;;12.57;48.91;99028.38;4842135;29;20037;-76
2021/03/05 07:55:42;;;;;;;44.95;26.70;;;;;;;12.64;47.93;99029.59;4836962;29;20039;-76
2021/03/05 07:58:09;;;;;;;39.30;24.45;;;;;;;12.68;48.37;99027.13;4825103;29;20034;-78
2021/03/05 08:00:50;;;;;;;40.28;24.23;;;;;;;12.69;47.87;99023.38;4840515;29;20041;-77
2021/03/05 08:03:18;;;;;;;38.90;21.75;;;;;;;12.70;47.60;99026.88;4839890;29;20026;-76
2021/03/05 08:05:48;;;;;;;38.72;22.80;;;;;;;12.70;47.73;99021.50;4851802;29;20048;-77
2021/03/05 08:08:25;;;;;;;43.30;21.80;;;;;;;12.67;48.82;99027.44;4840019;29;20034;-80
2021/03/05 08:11:05;;;;;;;26.65;16.77;;;;;;;12.65;48.42;99027.72;4822313;29;20066;-76
2021/03/05 08:13:51;;;;;;;21.95;14.90;;;;;;;12.59;48.57;99024.31;4840754;29;20074;-84
2021/03/05 08:16:38;;;;;;;21.38;13.23;;;;;;;12.56;49.31;99029.47;4840484;29;20083;-89
2021/03/05 08:19:03;;;;;;;17.92;10.65;;;;;;;12.59;48.34;99028.91;4825345;29;20045;-88
2021/03/05 08:21:54;;;;;;;13.43;10.50;;;;;;;12.61;48.54;99024.03;4840405;29;20090;-92
2021/03/05 08:24:42;;;;;;;17.92;9.38;;;;;;;12.65;48.89;99025.06;4841087;29;20126;-87
2021/03/05 08:27:35;;;;;;;13.88;8.73;;;;;;;12.68;48.05;99012.94;4837190;29;20386;-89
2021/03/05 08:30:09;;;;;;;14.63;8.50;;;;;;;12.72;47.99;99012.06;4808885;29;20038;-84
2021/03/05 08:32:34;;;;;;;11.98;7.38;;;;;;;12.77;47.39;99019.25;4839297;29;20041;-85
2021/03/05 08:35:08;;;;;;;15.32;8.38;;;;;;;12.83;47.41;99010.03;4837889;29;20022;-85
2021/03/05 08:37:38;;;;;;;14.05;7.55;;;;;;;12.85;45.88;99009.75;4831706;29;20046;-87
2021/03/05 08:40:10;;;;;;;13.13;8.15;;;;;;;12.86;45.56;99006.75;4858249;29;20041;-89
2021/03/05 08:42:45;;;;;;;16.20;7.25;;;;;;;12.93;45.16;99007.19;4824145;29;20097;-89
2021/03/05 08:45:23;;;;;;;12.77;8.43;;;;;;;13.03;44.09;99008.91;4839932;29;20038;-90
2021/03/05 08:47:54;;;;;;;16.25;9.27;;;;;;;13.10;42.78;99013.91;4825891;29;20054;-78
2021/03/05 08:50:31;;;;;;;17.55;8.73;;;;;;;13.14;42.05;99012.22;4838832;29;20515;-78
2021/03/05 08:53:13;;;;;;;16.30;8.18;;;;;;;13.17;41.96;99000.91;4837862;29;20033;-86
2021/03/05 08:55:41;;;;;;;16.98;8.60;;;;;;;13.25;42.11;98997.53;4813957;29;20041;-80
2021/03/05 08:58:07;;;;;;;15.02;8.65;;;;;;;13.30;40.69;98991.28;4821790;29;20117;-86
2021/03/05 09:00:35;;;;;;;13.00;8.40;;;;;;;13.40;40.73;98991.16;4827667;29;20037;-85
2021/03/05 09:03:06;;;;;;;16.73;10.07;;;;;;;13.49;40.39;98980.50;4834477;29;20038;-82
2021/03/05 09:05:33;;;;;;;15.98;8.98;;;;;;;13.54;40.04;98990.38;4840240;29;20034;-85
2021/03/05 09:07:59;;;;;;;15.15;8.60;;;;;;;13.53;40.72;98986.88;4844145;29;20044;-82
2021/03/05 09:10:43;;;;;;;15.70;9.02;;;;;;;13.59;40.72;98979.53;4855444;29;20034;-84
2021/03/05 09:13:10;;;;;;;18.88;8.93;;;;;;;13.60;41.49;98979.22;4836672;29;20056;-80
2021/03/05 09:15:46;;;;;;;17.13;10.07;;;;;;;13.65;41.34;98982.94;4840571;29;20473;-81
2021/03/05 09:18:16;;;;;;;20.20;10.18;;;;;;;13.66;41.19;98976.44;4841749;29;20041;-92
2021/03/05 09:20:52;;;;;;;16.33;10.43;;;;;;;13.72;41.29;98973.38;4825956;29;20038;-82
2021/03/05 09:23:17;;;;;;;14.68;8.75;;;;;;;13.79;41.15;98981.00;4851362;29;20037;-92
2021/03/05 09:25:55;;;;;;;16.48;9.63;;;;;;;13.85;40.90;98981.72;4832403;29;20082;-86
2021/03/05 09:28:23;;;;;;;10.88;7.75;;;;;;;13.90;41.01;98976.25;4839256;29;20066;-89
2021/03/05 09:30:56;;;;;;;13.77;9.00;;;;;;;13.96;41.28;98976.94;4839816;29;20030;-88
2021/03/05 09:33:37;;;;;;;18.85;9.02;;;;;;;13.99;41.21;98970.94;4839247;29;20090;-88
2021/03/05 09:36:13;;;;;;;15.45;8.68;;;;;;;14.12;41.06;98972.03;4839129;29;20033;-87
2021/03/05 09:38:40;;;;;;;13.52;9.13;;;;;;;14.17;41.51;98969.25;4839610;29;20064;-87
2021/03/05 09:41:20;;;;;;;14.20;7.43;;;;;;;14.24;41.35;98973.13;4839388;29;20029;-87
2021/03/05 09:44:02;;;;;;;9.43;6.72;;;;;;;14.26;41.18;98972.81;4840209;29;20046;-88
2021/03/05 09:46:30;;;;;;;16.02;8.45;;;;;;;14.31;41.44;98964.63;4839585;29;20038;-87
2021/03/05 09:48:57;;;;;;;9.48;7.10;;;;;;;14.37;40.92;98968.81;4838995;29;20125;-87
2021/03/05 09:51:24;;;;;;;13.20;8.20;;;;;;;14.45;40.65;98963.81;4839734;29;20138;-87
2021/03/05 09:53:56;;;;;;;12.85;7.72;;;;;;;14.52;40.87;98964.19;4839680;29;20156;-87
2021/03/05 09:56:27;;;;;;;14.32;8.38;;;;;;;14.57;41.10;98958.69;4839561;29;20137;-87
2021/03/05 09:59:00;;;;;;;12.85;7.30;;;;;;;14.62;41.19;98955.06;4824369;29;20033;-87
2021/03/05 10:01:34;;;;;;;14.57;8.35;;;;;;;14.68;41.51;98953.88;4840541;29;20030;-87
2021/03/05 10:04:01;;;;;;;10.20;7.38;;;;;;;14.76;41.11;98952.34;4824225;29;20070;-87
2021/03/05 10:06:29;;;;;;;12.30;6.85;;;;;;;14.82;41.22;98948.47;4839159;29;20042;-87
2021/03/05 10:09:06;;;;;;;12.75;7.22;;;;;;;14.89;40.76;98949.59;4824031;29;20071;-87
2021/03/05 10:11:41;;;;;;;12.50;7.07;;;;;;;14.95;40.34;98939.53;4839362;29;20482;-87
2021/03/05 10:14:07;;;;;;;8.65;5.97;;;;;;;14.98;39.12;98927.34;4838998;29;20452;-87
2021/03/05 10:16:41;;;;;;;8.65;5.72;;;;;;;15.10;39.89;98940.22;4839239;29;20065;-87
2021/03/05 10:19:12;;;;;;;13.02;6.65;;;;;;;15.18;39.79;98926.81;4838997;29;20120;-89
2021/03/05 10:21:46;;;;;;;9.88;6.57;;;;;;;15.31;39.96;98929.72;4839136;29;20038;-87
2021/03/05 10:24:14;;;;;;;11.70;6.00;;;;;;;15.39;39.04;98934.34;4839041;29;20546;-87
2021/03/05 10:27:10;;;;;;;9.80;5.78;;;;;;;15.44;39.56;98931.53;4839023;29;20030;-87
2021/03/05 10:29:27;;;;;;;8.10;5.63;;;;;;;15.51;40.11;98920.28;4840051;29;20512;-87
2021/03/05 10:31:54;;;;;;;8.02;6.57;;;;;;;15.61;40.46;98911.13;4824101;29;20044;-86
2021/03/05 10:34:28;;;;;;;10.30;5.80;;;;;;;15.73;40.44;98914.00;4839055;29;20060;-87
2021/03/05 10:36:56;;;;;;;7.35;5.68;;;;;;;15.81;39.29;98899.75;4838473;29;20041;-87
2021/03/05 10:39:22;;;;;;;10.57;5.50;;;;;;;15.87;39.01;98895.03;4838776;29;20037;-87
2021/03/05 10:41:53;;;;;;;6.60;5.32;;;;;;;16.01;38.14;98900.28;4839014;29;20530;-87
2021/03/05 10:44:20;;;;;;;7.68;5.25;;;;;;;16.09;37.44;98898.72;4838727;29;20034;-88
2021/03/05 10:46:46;;;;;;;10.07;4.93;;;;;;;16.16;38.48;98875.56;4838731;29;20050;-88
2021/03/05 10:49:11;;;;;;;7.03;5.00;;;;;;;16.31;37.62;98876.19;4838701;29;20077;-88
2021/03/05 10:51:37;;;;;;;7.25;5.47;;;;;;;16.40;37.43;98874.25;4838983;29;20079;-87
2021/03/05 10:54:03;;;;;;;5.78;4.55;;;;;;;16.48;37.84;98872.69;4823632;29;20038;-87
2021/03/05 10:56:28;;;;;;;7.18;4.85;;;;;;;16.55;37.29;98874.88;4842687;29;20042;-87
2021/03/05 10:58:54;;;;;;;6.90;5.22;;;;;;;16.59;37.17;98860.44;4842506;29;20484;-87
2021/03/05 11:01:20;;;;;;;9.93;5.78;;;;;;;16.72;36.35;98866.78;4842521;29;20034;-87
2021/03/05 11:03:45;;;;;;;6.25;5.07;;;;;;;16.80;35.62;98860.53;4842138;29;20042;-87
2021/03/05 11:06:11;;;;;;;8.15;4.30;;;;;;;16.88;34.46;98847.34;4842097;29;20029;-87
2021/03/05 11:08:36;;;;;;;7.40;5.15;;;;;;;16.97;36.60;98858.94;4842213;29;20037;-86
2021/03/05 11:11:02;;;;;;;7.72;4.78;;;;;;;17.04;35.76;98853.84;4842216;29;20033;-88
2021/03/05 11:13:28;;;;;;;12.88;5.43;;;;;;;17.13;35.50;98846.47;4842518;29;20174;-86
2021/03/05 11:15:53;;;;;;;5.15;3.90;;;;;;;17.22;34.40;98848.34;4842189;29;20034;-87
2021/03/05 11:18:19;;;;;;;8.02;4.20;;;;;;;17.29;33.36;98837.81;4841728;29;20038;-87
2021/03/05 11:20:44;;;;;;;6.75;4.55;;;;;;;17.33;33.52;98827.94;4842237;29;20040;-87
2021/03/05 11:23:10;;;;;;;7.15;4.30;;;;;;;17.41;33.37;98829.03;4842268;29;20029;-87
2021/03/05 11:25:35;;;;;;;8.95;5.53;;;;;;;17.46;33.47;98819.94;4826992;29;20119;-87
2021/03/05 11:28:01;;;;;;;5.38;3.97;;;;;;;17.57;33.05;98829.25;4831551;29;20162;-87
2021/03/05 11:30:27;;;;;;;8.23;4.93;;;;;;;17.66;33.29;98815.66;4850371;29;20034;-87
2021/03/05 11:32:53;;;;;;;6.63;4.65;;;;;;;17.75;32.57;98821.81;4826668;29;20052;-86
2021/03/05 11:35:19;;;;;;;8.35;4.78;;;;;;;17.85;32.33;98809.81;4842903;29;20113;-88
2021/03/05 11:37:44;;;;;;;12.02;5.22;;;;;;;17.89;31.53;98799.91;4826396;29;20124;-86
2021/03/05 11:40:11;;;;;;;7.45;4.75;;;;;;;18.01;30.81;98801.91;4826433;29;20034;-86
2021/03/05 11:42:36;;;;;;;5.60;3.78;;;;;;;18.05;30.41;98802.81;4841727;29;20098;-87
2021/03/05 11:45:05;;;;;;;5.00;4.22;;;;;;;18.16;30.03;98797.78;4841620;29;20042;-87
2021/03/05 11:47:34;;;;;;;7.07;4.30;;;;;;;18.20;30.40;98793.28;4842178;29;20389;-86
2021/03/05 11:50:01;;;;;;;7.63;4.93;;;;;;;18.27;30.74;98798.19;4826434;29;20030;-87
2021/03/05 11:52:27;;;;;;;6.47;4.97;;;;;;;18.28;31.45;98784.31;4841829;29;20120;-87
2021/03/05 11:54:52;;;;;;;10.93;5.30;;;;;;;18.38;31.95;98785.78;4826217;29;20067;-87
2021/03/05 11:57:18;;;;;;;8.52;4.63;;;;;;;18.37;30.59;98784.22;4825929;29;20025;-86
2021/03/05 11:59:43;;;;;;;6.78;3.78;;;;;;;18.40;30.78;98778.91;4841428;29;20037;-86
2021/03/05 12:02:09;;;;;;;5.97;4.55;;;;;;;18.37;29.98;98760.66;4826109;29;20555;-87
2021/03/05 12:04:35;;;;;;;8.88;4.68;;;;;;;18.45;29.71;98769.78;4826126;29;20077;-87
2021/03/05 12:07:01;;;;;;;5.72;4.15;;;;;;;18.47;29.88;98761.31;4825017;29;20057;-88
2021/03/05 12:09:27;;;;;;;8.40;4.82;;;;;;;18.50;30.94;98757.97;4841234;29;20462;-87
2021/03/05 12:11:53;;;;;;;6.13;4.18;;;;;;;18.53;30.94;98758.09;4810997;29;20939;-88
2021/03/05 12:14:18;;;;;;;6.20;4.53;;;;;;;18.59;30.82;98755.16;4825591;29;20122;-88
2021/03/05 12:16:44;;;;;;;7.18;5.03;;;;;;;18.65;30.84;98761.94;4840882;29;20108;-88
2021/03/05 12:19:09;;;;;;;4.95;3.80;;;;;;;18.67;30.20;98754.25;4837493;29;20088;-87
2021/03/05 12:21:36;;;;;;;5.10;3.60;;;;;;;18.66;30.26;98750.78;4822628;29;20058;-88
2021/03/05 12:24:02;;;;;;;8.43;4.07;;;;;;;18.64;30.28;98753.03;4822362;29;20030;-86
2021/03/05 12:26:27;;;;;;;6.72;4.70;;;;;;;18.65;30.62;98753.81;4842105;29;20083;-86
2021/03/05 12:28:53;;;;;;;6.68;3.97;;;;;;;18.64;30.77;98747.59;4841119;29;20073;-86
2021/03/05 12:31:18;;;;;;;4.85;4.07;;;;;;;18.62;30.73;98746.38;4825628;29;20034;-87
2021/03/05 12:33:43;;;;;;;6.80;4.70;;;;;;;18.60;30.89;98749.38;4841245;29;20393;-87
2021/03/05 12:36:10;;;;;;;8.90;4.40;;;;;;;18.64;30.99;98742.19;4825375;29;20106;-87
2021/03/05 12:38:36;;;;;;;5.88;4.15;;;;;;;18.67;31.08;98738.78;4810398;29;20034;-86
2021/03/05 12:41:03;;;;;;;6.25;3.83;;;;;;;18.70;30.49;98740.84;4825147;29;20056;-87
2021/03/05 12:43:28;;;;;;;4.20;3.05;;;;;;;18.69;30.58;98741.19;4825293;29;20143;-87
2021/03/05 12:45:53;;;;;;;5.82;4.15;;;;;;;18.70;30.75;98740.03;4840684;29;20456;-87
2021/03/05 12:48:19;;;;;;;5.10;3.65;;;;;;;18.72;31.01;98735.88;4840666;29;20093;-87
2021/03/05 12:50:44;;;;;;;5.75;4.13;;;;;;;18.78;31.08;98724.81;4840830;29;20148;-87
2021/03/05 12:53:10;;;;;;;6.30;3.53;;;;;;;18.80;30.26;98723.34;4825208;29;20038;-87
2021/03/05 12:55:35;;;;;;;4.80;3.60;;;;;;;18.82;30.61;98721.09;4840489;29;20037;-87
2021/03/05 12:58:01;;;;;;;6.82;4.15;;;;;;;18.85;31.05;98723.13;4839870;29;20064;-87
2021/03/05 13:00:27;;;;;;;5.03;3.95;;;;;;;18.87;31.12;98712.75;4839928;29;20030;-87
2021/03/05 13:02:52;;;;;;;6.72;4.38;;;;;;;18.91;30.92;98717.47;4839901;29;20205;-87
2021/03/05 13:05:18;;;;;;;3.63;3.33;;;;;;;18.91;30.86;98714.75;4840061;29;20038;-87
2021/03/05 13:07:43;;;;;;;4.75;3.28;;;;;;;18.92;31.24;98716.38;4840344;29;20034;-87
2021/03/05 13:10:09;;;;;;;4.15;3.75;;;;;;;18.91;31.05;98710.16;4840119;29;20041;-87
2021/03/05 13:12:34;;;;;;;5.50;3.75;;;;;;;18.90;30.94;98707.78;4840335;29;20026;-87
2021/03/05 13:15:00;;;;;;;6.03;4.18;;;;;;;18.88;31.87;98705.38;4840399;29;20037;-86
2021/03/05 13:17:26;;;;;;;5.45;4.03;;;;;;;18.90;32.21;98716.69;4824460;29;20124;-87
2021/03/05 13:19:51;;;;;;;7.28;4.43;;;;;;;18.90;32.75;98711.25;4839575;29;20159;-87
2021/03/05 13:22:17;;;;;;;4.60;3.33;;;;;;;18.91;32.49;98714.75;4839967;29;20482;-87
2021/03/05 13:24:44;;;;;;;5.22;4.05;;;;;;;18.91;32.83;98710.16;4840138;29;20045;-87
2021/03/05 13:27:10;;;;;;;5.30;3.78;;;;;;;18.91;33.04;98706.63;4839730;29;20045;-87
2021/03/05 13:29:35;;;;;;;6.63;4.28;;;;;;;18.89;33.36;98704.25;4839925;29;20034;-87
2021/03/05 13:32:01;;;;;;;5.93;3.08;;;;;;;18.92;33.31;98703.63;4839880;29;20033;-87
2021/03/05 13:34:26;;;;;;;5.10;3.65;;;;;;;18.95;34.18;98707.56;4824812;29;20067;-87
2021/03/05 13:36:52;;;;;;;5.35;3.88;;;;;;;18.92;34.37;98695.50;4839728;29;20029;-87
2021/03/05 13:39:17;;;;;;;5.90;3.90;;;;;;;18.91;34.63;98691.22;4839534;29;20033;-87
2021/03/05 13:41:43;;;;;;;5.03;4.53;;;;;;;18.88;35.01;98703.47;4839703;29;20030;-86
2021/03/05 13:44:08;;;;;;;5.68;3.72;;;;;;;18.89;34.83;98690.72;4839643;29;20034;-87
2021/03/05 13:46:34;;;;;;;6.32;4.07;;;;;;;18.87;35.39;98692.97;4839316;29;20511;-87
2021/03/05 13:48:59;;;;;;;5.65;4.10;;;;;;;18.85;35.87;98697.94;4839741;29;20129;-87
2021/03/05 13:51:25;;;;;;;5.63;4.05;;;;;;;18.80;35.64;98688.13;4839443;29;20036;-87
2021/03/05 13:53:50;;;;;;;4.88;3.55;;;;;;;18.81;35.76;98684.28;4824606;29;20503;-87
2021/03/05 13:56:16;;;;;;;6.43;4.40;;;;;;;18.81;35.86;98694.31;4839436;29;20036;-86
2021/03/05 13:58:41;;;;;;;5.93;4.05;;;;;;;18.79;36.19;98691.97;4839563;29;20128;-85
2021/03/05 14:01:07;;;;;;;5.07;3.88;;;;;;;18.77;35.99;98691.50;4839230;29;20032;-85
2021/03/05 14:03:33;;;;;;;6.47;4.00;;;;;;;18.77;36.05;98688.03;4839533;29;20465;-86
2021/03/05 14:05:58;;;;;;;6.35;4.25;;;;;;;18.79;36.06;98696.59;4839371;29;20055;-85
2021/03/05 14:08:24;;;;;;;4.43;3.83;;;;;;;18.76;36.06;98678.31;4839116;29;20042;-86
2021/03/05 14:10:51;;;;;;;8.85;4.18;;;;;;;18.72;32.09;98679.00;4839459;29;20094;-87
2021/03/05 14:13:16;;;;;;;4.57;3.35;;;;;;;18.72;30.97;98667.38;4839135;29;20033;-85
2021/03/05 14:15:42;;;;;;;5.78;3.83;;;;;;;18.73;30.59;98671.66;4839252;29;20041;-86
2021/03/05 14:18:09;;;;;;;4.85;3.42;;;;;;;18.73;30.05;98666.25;4838774;29;20484;-87
2021/03/05 14:20:34;;;;;;;5.13;3.97;;;;;;;18.73;29.14;98663.53;4824134;29;20030;-86
2021/03/05 14:23:00;;;;;;;5.78;3.60;;;;;;;18.75;29.40;98666.69;4839057;29;20428;-86
2021/03/05 14:25:26;;;;;;;6.00;4.13;;;;;;;18.76;30.00;98662.88;4838802;29;20044;-86
2021/03/05 14:27:51;;;;;;;5.80;3.92;;;;;;;18.75;29.60;98666.69;4838967;29;20037;-86
2021/03/05 14:30:18;;;;;;;4.82;4.05;;;;;;;18.76;29.76;98670.19;4838415;29;20485;-85
2021/03/05 14:32:47;;;;;;;4.65;3.60;;;;;;;18.77;29.76;98667.13;4823965;29;20034;-85
2021/03/05 14:35:14;;;;;;;3.60;3.17;;;;;;;18.76;30.22;98670.19;4838800;29;20025;-85
2021/03/05 14:37:39;;;;;;;8.23;6.23;;;;;;;18.72;30.63;98670.06;4838940;29;20041;-85
2021/03/05 14:40:05;;;;;;;8.27;4.63;;;;;;;18.71;31.00;98672.00;4838781;29;20279;-85
2021/03/05 14:42:31;;;;;;;9.98;4.20;;;;;;;18.66;31.14;98672.25;4838804;29;20625;-85
2021/03/05 14:44:56;;;;;;;5.65;3.33;;;;;;;18.68;31.57;98669.97;4824135;29;20037;-85
2021/03/05 14:47:22;;;;;;;6.10;4.20;;;;;;;18.66;31.46;98674.13;4838705;29;20109;-85
2021/03/05 14:49:47;;;;;;;5.93;4.28;;;;;;;18.63;31.73;98672.91;4838892;29;20049;-86
2021/03/05 14:52:13;;;;;;;7.90;4.80;;;;;;;18.62;31.93;98667.84;4838724;29;20034;-86
2021/03/05 14:54:38;;;;;;;8.05;4.78;;;;;;;18.58;32.22;98672.31;4838659;29;20042;-85
2021/03/05 14:57:04;;;;;;;7.30;4.78;;;;;;;18.55;32.50;98666.47;4839116;29;20186;-85
2021/03/05 14:59:30;;;;;;;5.43;3.97;;;;;;;18.49;32.89;98667.03;4838687;29;20113;-85
2021/03/05 15:01:55;;;;;;;5.40;4.38;;;;;;;18.44;33.18;98665.31;4841320;29;20508;-85
2021/03/05 15:04:21;;;;;;;11.30;5.00;;;;;;;18.39;33.41;98665.56;4824991;29;20041;-85
2021/03/05 15:06:46;;;;;;;7.40;3.85;;;;;;;18.33;33.53;98658.78;4838972;29;20495;-85
2021/03/05 15:09:12;;;;;;;7.57;4.60;;;;;;;18.27;33.70;98657.44;4838915;29;20411;-87
2021/03/05 15:11:38;;;;;;;7.70;4.20;;;;;;;18.22;33.54;98661.94;4839160;29;20411;-84
2021/03/05 15:14:04;;;;;;;6.22;4.22;;;;;;;18.15;33.80;98669.81;4838939;29;20048;-84
2021/03/05 15:16:29;;;;;;;7.68;4.40;;;;;;;18.10;33.85;98672.72;4822941;29;20026;-84
2021/03/05 15:18:55;;;;;;;6.82;4.40;;;;;;;18.04;34.17;98677.56;4837203;29;20060;-85
2021/03/05 15:21:20;;;;;;;7.00;4.22;;;;;;;17.95;34.46;98671.44;4838566;29;20121;-86
2021/03/05 15:23:46;;;;;;;9.60;6.22;;;;;;;17.91;34.59;98676.72;4834723;29;20476;-86
2021/03/05 15:26:20;;;;;;;7.28;4.63;;;;;;;17.84;35.27;98672.97;4823803;29;20034;-96
2021/03/05 15:28:46;;;;;;;6.90;5.78;;;;;;;17.77;35.50;98682.44;4838397;29;20038;-84
2021/03/05 15:31:11;;;;;;;10.23;5.22;;;;;;;17.69;35.93;98680.59;4838593;29;20097;-86
2021/03/05 15:33:39;;;;;;;6.20;4.60;;;;;;;17.61;36.14;98689.56;4845417;29;20033;-96
2021/03/05 15:36:05;;;;;;;7.88;5.90;;;;;;;17.53;36.50;98699.34;4840448;29;20502;-86
2021/03/05 15:38:31;;;;;;;7.88;5.47;;;;;;;17.46;36.73;98695.59;4838493;29;20121;-85
2021/03/05 15:40:56;;;;;;;9.70;5.32;;;;;;;17.35;37.08;98695.97;4838621;29;20029;-87
2021/03/05 15:43:22;;;;;;;6.57;5.38;;;;;;;17.30;37.23;98709.69;4832872;29;20034;-89
2021/03/05 15:45:47;;;;;;;8.75;5.97;;;;;;;17.22;37.78;98705.94;4815772;29;20397;-84
2021/03/05 15:48:16;;;;;;;12.05;5.20;;;;;;;17.15;37.96;98723.78;4841640;29;20257;-83
2021/03/05 15:50:42;;;;;;;8.32;5.22;;;;;;;17.07;37.93;98711.91;4841735;29;20025;-85
2021/03/05 15:53:07;;;;;;;8.75;6.05;;;;;;;16.98;38.26;98720.06;4825512;29;20042;-86
2021/03/05 15:55:32;;;;;;;8.63;5.68;;;;;;;16.92;38.29;98710.56;4842938;29;20038;-86
2021/03/05 15:57:58;;;;;;;7.55;5.00;;;;;;;16.83;38.36;98721.38;4841273;29;20037;-87
2021/03/05 16:00:24;;;;;;;8.70;5.38;;;;;;;16.75;38.59;98723.00;4838071;29;20057;-85
2021/03/05 16:02:49;;;;;;;8.20;4.32;;;;;;;16.62;38.29;98732.91;4839003;29;20099;-86
2021/03/05 16:05:15;;;;;;;8.02;6.07;;;;;;;16.55;37.93;98731.81;4839595;29;20038;-83
2021/03/05 16:07:40;;;;;;;11.80;6.40;;;;;;;16.49;38.47;98737.41;4825901;29;20125;-86
2021/03/05 16:10:07;;;;;;;7.38;5.57;;;;;;;16.40;37.95;98725.81;4841728;29;20118;-84
2021/03/05 16:12:33;;;;;;;9.50;5.75;;;;;;;16.31;38.43;98727.78;4839707;29;20500;-87
2021/03/05 16:14:59;;;;;;;8.90;5.30;;;;;;;16.24;38.47;98727.47;4839651;29;20033;-86
2021/03/05 16:17:24;;;;;;;11.52;5.60;;;;;;;16.16;38.54;98720.97;4840784;29;20069;-83
2021/03/05 16:19:50;;;;;;;9.68;6.35;;;;;;;16.08;38.62;98727.19;4825813;29;20054;-85
2021/03/05 16:22:15;;;;;;;11.77;8.00;;;;;;;16.02;38.92;98733.88;4822554;29;20030;-81
2021/03/05 16:24:41;;;;;;;11.43;7.18;;;;;;;15.95;39.14;98729.75;4823607;29;20145;-89
2021/03/05 16:27:06;;;;;;;14.05;7.95;;;;;;;15.90;39.21;98729.13;4835672;29;20389;-89
2021/03/05 16:29:33;;;;;;;13.18;7.43;;;;;;;15.82;39.95;98728.00;4826124;29;20057;-90
2021/03/05 16:31:58;;;;;;;15.98;8.07;;;;;;;15.74;40.36;98732.25;4825902;29;20508;-85
2021/03/05 16:34:25;;;;;;;12.18;7.90;;;;;;;15.68;40.52;98737.03;4839047;29;20041;-86
2021/03/05 16:36:52;;;;;;;16.33;9.35;;;;;;;15.64;41.10;98737.97;4831924;29;20521;-86
2021/03/05 16:39:18;;;;;;;13.85;9.48;;;;;;;15.55;41.59;98734.47;4839710;29;20519;-86
2021/03/05 16:41:45;;;;;;;16.15;8.57;;;;;;;15.52;41.95;98735.91;4826239;29;20033;-93
2021/03/05 16:44:12;;;;;;;12.13;8.07;;;;;;;15.42;42.26;98742.41;4826089;29;20041;-91
2021/03/05 16:46:38;;;;;;;12.95;8.18;;;;;;;15.35;42.63;98750.94;4825403;29;20098;-88
2021/03/05 16:49:14;;;;;;;12.55;7.80;;;;;;;15.31;42.97;98752.69;4826333;29;20045;-88
2021/03/05 16:51:41;;;;;;;13.32;7.93;;;;;;;15.23;43.40;98763.44;4842750;29;20091;-87
2021/03/05 16:54:08;;;;;;;12.18;8.27;;;;;;;15.15;43.94;98748.88;4840717;29;20037;-85
2021/03/05 16:56:34;;;;;;;15.40;8.85;;;;;;;15.08;44.64;98754.69;4816855;29;20405;-78
2021/03/05 16:58:59;;;;;;;15.55;8.25;;;;;;;15.01;44.65;98759.75;4822823;29;20024;-90
2021/03/05 17:01:25;;;;;;;15.25;9.48;;;;;;;14.95;45.31;98753.72;4822630;29;20129;-77
2021/03/05 17:03:51;;;;;;;16.88;10.30;;;;;;;14.88;46.02;98767.63;4822890;29;20041;-82
2021/03/05 17:06:16;;;;;;;15.52;9.25;;;;;;;14.82;46.14;98768.09;4829824;29;20038;-78
2021/03/05 17:08:42;;;;;;;15.60;9.15;;;;;;;14.79;46.44;98774.09;4833734;29;20062;-80
2021/03/05 17:11:07;;;;;;;17.25;10.65;;;;;;;14.71;46.69;98767.56;4836274;29;20038;-83
2021/03/05 17:13:33;;;;;;;17.90;10.52;;;;;;;14.66;46.76;98768.50;4835762;29;20113;-81
2021/03/05 17:15:59;;;;;;;20.63;10.18;;;;;;;14.60;46.82;98766.19;4842151;29;20034;-82